PWSweather.com
Personal Weather Stations
Station Observations
KTXPLANO60
Highlands Of Russell Park, Plano, TX 75025

Highlands Of Russell ParkPlano, TX 75025

Lat: 33.10431671, Lon: -96.75176239

Elevation: 761

Station Type: Davis Wireless VP2 Plus

http://www.planoweather.com

High Low Average
Temperature 91.0°F32.8°C 77.8°F25.4°C 83.3°F28.5°C
Dew Point 73.5°F23.1°C 65.4°F18.6°C 68.5°F20.3°C
Winds 11.5 mph 18.5 kmh 1.2 mph 1.9 kmh 5.0 mph WSW8.0 kmh WSW
Wind Gusts 17.3 mph27.8 kmh 1.2 mph1.9 kmh 7.0 mph11.3 kmh
Humidity 80% 45% 62%
Pressure 29.96 in1014.6 mb 29.79 in1008.8 mb -
Precipitation 0.00 in0.0 mm - -
Hour Temp Dew Point Humidity Winds Wind Gusts Pressure Precip Precip Rate Daily Precip Total
12:00 AM 83.1°F28.4°C 72.7°F22.6°C 71% 3.5 mph SSW5.6 kmh SSW 6.9 mph11.1 kmh 29.80 in1009.1 mb - 0.00 in0.0 mm 0.00 in0.0 mm
12:10 AM 82.9°F28.3°C 73.0°F22.8°C 72% 2.3 mph S3.7 kmh S 3.5 mph5.6 kmh 29.80 in1009.1 mb - 0.00 in0.0 mm 0.00 in0.0 mm
12:20 AM 82.7°F28.2°C 72.8°F22.7°C 72% 3.5 mph SW5.6 kmh SW 3.5 mph5.6 kmh 29.80 in1009.1 mb - 0.00 in0.0 mm 0.00 in0.0 mm
12:30 AM 82.6°F28.1°C 72.7°F22.6°C 72% 2.3 mph SW3.7 kmh SW 4.6 mph7.4 kmh 29.80 in1009.1 mb - 0.00 in0.0 mm 0.00 in0.0 mm
12:40 AM 82.6°F28.1°C 72.2°F22.3°C 71% 2.3 mph SW3.7 kmh SW 3.5 mph5.6 kmh 29.80 in1009.1 mb - 0.00 in0.0 mm 0.00 in0.0 mm
12:50 AM 82.7°F28.2°C 72.3°F22.4°C 71% 3.5 mph SSW5.6 kmh SSW 3.5 mph5.6 kmh 29.80 in1009.1 mb - 0.00 in0.0 mm 0.00 in0.0 mm
01:00 AM 82.6°F28.1°C 72.7°F22.6°C 72% 3.5 mph SW5.6 kmh SW 4.6 mph7.4 kmh 29.80 in1009.1 mb - 0.00 in0.0 mm 0.00 in0.0 mm
01:10 AM 82.5°F28.1°C 72.5°F22.5°C 72% 3.5 mph SW5.6 kmh SW 4.6 mph7.4 kmh 29.80 in1009.1 mb - 0.00 in0.0 mm 0.00 in0.0 mm
01:20 AM 82.6°F28.1°C 72.2°F22.3°C 71% 3.5 mph SW5.6 kmh SW 5.8 mph9.3 kmh 29.80 in1009.1 mb - 0.00 in0.0 mm 0.00 in0.0 mm
01:30 AM 82.7°F28.2°C 72.3°F22.4°C 71% 3.5 mph SW5.6 kmh SW 4.6 mph7.4 kmh 29.81 in1009.5 mb - 0.00 in0.0 mm 0.00 in0.0 mm
01:40 AM 82.7°F28.2°C 72.3°F22.4°C 71% 4.6 mph WSW7.4 kmh WSW 4.6 mph7.4 kmh 29.80 in1009.1 mb - 0.00 in0.0 mm 0.00 in0.0 mm
01:50 AM 82.6°F28.1°C 72.2°F22.3°C 71% 4.6 mph WSW7.4 kmh WSW 5.8 mph9.3 kmh 29.80 in1009.1 mb - 0.00 in0.0 mm 0.00 in0.0 mm
02:00 AM 82.4°F28.0°C 72.5°F22.5°C 72% 3.5 mph SW5.6 kmh SW 3.5 mph5.6 kmh 29.79 in1008.8 mb - 0.00 in0.0 mm 0.00 in0.0 mm
02:10 AM 82.2°F27.9°C 72.3°F22.4°C 72% 3.5 mph WSW5.6 kmh WSW 4.6 mph7.4 kmh 29.79 in1008.8 mb - 0.00 in0.0 mm 0.00 in0.0 mm
02:20 AM 82.0°F27.8°C 72.5°F22.5°C 73% 2.3 mph WSW3.7 kmh WSW 3.5 mph5.6 kmh 29.79 in1008.8 mb - 0.00 in0.0 mm 0.00 in0.0 mm
02:30 AM 81.9°F27.7°C 72.8°F22.7°C 74% 2.3 mph WSW3.7 kmh WSW 3.5 mph5.6 kmh 29.80 in1009.1 mb - 0.00 in0.0 mm 0.00 in0.0 mm
02:40 AM 81.7°F27.6°C 72.6°F22.6°C 74% 4.6 mph WSW7.4 kmh WSW 4.6 mph7.4 kmh 29.80 in1009.1 mb - 0.00 in0.0 mm 0.00 in0.0 mm
02:50 AM 81.6°F27.6°C 72.5°F22.5°C 74% 2.3 mph WSW3.7 kmh WSW 3.5 mph5.6 kmh 29.80 in1009.1 mb - 0.00 in0.0 mm 0.00 in0.0 mm
03:00 AM 81.5°F27.5°C 72.4°F22.4°C 74% 2.3 mph WSW3.7 kmh WSW 4.6 mph7.4 kmh 29.80 in1009.1 mb - 0.00 in0.0 mm 0.00 in0.0 mm
03:10 AM 81.4°F27.4°C 72.7°F22.6°C 75% 2.3 mph WSW3.7 kmh WSW 3.5 mph5.6 kmh 29.80 in1009.1 mb - 0.00 in0.0 mm 0.00 in0.0 mm
03:20 AM 81.3°F27.4°C 72.6°F22.6°C 75% 2.3 mph WSW3.7 kmh WSW 3.5 mph5.6 kmh 29.80 in1009.1 mb - 0.00 in0.0 mm 0.00 in0.0 mm
03:30 AM 81.2°F27.3°C 72.9°F22.7°C 76% 1.2 mph WSW1.9 kmh WSW 2.3 mph3.7 kmh 29.80 in1009.1 mb - 0.00 in0.0 mm 0.00 in0.0 mm
03:40 AM 81.0°F27.2°C 72.7°F22.6°C 76% 8.1 mph S13.0 kmh S 12.7 mph20.4 kmh 29.82 in1009.8 mb - 0.00 in0.0 mm 0.00 in0.0 mm
03:50 AM 81.3°F27.4°C 72.7°F22.6°C 75% 9.2 mph S14.8 kmh S 11.5 mph18.5 kmh 29.82 in1009.8 mb - 0.00 in0.0 mm 0.00 in0.0 mm
04:00 AM 81.9°F27.7°C 72.4°F22.4°C 73% 3.5 mph SSW5.6 kmh SSW 3.5 mph5.6 kmh 29.81 in1009.5 mb - 0.00 in0.0 mm 0.00 in0.0 mm
04:10 AM 82.0°F27.8°C 72.1°F22.3°C 72% 1.2 mph S1.9 kmh S 2.3 mph3.7 kmh 29.81 in1009.5 mb - 0.00 in0.0 mm 0.00 in0.0 mm
04:20 AM 81.9°F27.7°C 72.0°F22.2°C 72% 2.3 mph S3.7 kmh S 3.5 mph5.6 kmh 29.81 in1009.5 mb - 0.00 in0.0 mm 0.00 in0.0 mm
04:30 AM 81.6°F27.6°C 71.7°F22.1°C 72% 1.2 mph SSW1.9 kmh SSW 2.3 mph3.7 kmh 29.81 in1009.5 mb - 0.00 in0.0 mm 0.00 in0.0 mm
04:40 AM 81.3°F27.4°C 71.8°F22.1°C 73% 2.3 mph S3.7 kmh S 3.5 mph5.6 kmh 29.81 in1009.5 mb - 0.00 in0.0 mm 0.00 in0.0 mm
04:50 AM 80.9°F27.2°C 71.8°F22.1°C 74% 2.3 mph WSW3.7 kmh WSW 3.5 mph5.6 kmh 29.81 in1009.5 mb - 0.00 in0.0 mm 0.00 in0.0 mm
05:00 AM 80.5°F26.9°C 71.5°F21.9°C 74% 1.2 mph SW1.9 kmh SW 1.2 mph1.9 kmh 29.82 in1009.8 mb - 0.00 in0.0 mm 0.00 in0.0 mm
05:10 AM 80.3°F26.8°C 71.6°F22.0°C 75% 1.2 mph W1.9 kmh W 2.3 mph3.7 kmh 29.81 in1009.5 mb - 0.00 in0.0 mm 0.00 in0.0 mm
05:20 AM 80.0°F26.7°C 71.8°F22.1°C 76% 2.3 mph SW3.7 kmh SW 3.5 mph5.6 kmh 29.82 in1009.8 mb - 0.00 in0.0 mm 0.00 in0.0 mm
05:30 AM 79.7°F26.5°C 71.5°F21.9°C 76% 2.3 mph SW3.7 kmh SW 3.5 mph5.6 kmh 29.82 in1009.8 mb - 0.00 in0.0 mm 0.00 in0.0 mm
05:40 AM 79.5°F26.4°C 71.3°F21.8°C 76% 2.3 mph SSW3.7 kmh SSW 3.5 mph5.6 kmh 29.82 in1009.8 mb - 0.00 in0.0 mm 0.00 in0.0 mm
05:50 AM 79.3°F26.3°C 71.5°F21.9°C 77% 1.2 mph S1.9 kmh S 3.5 mph5.6 kmh 29.82 in1009.8 mb - 0.00 in0.0 mm 0.00 in0.0 mm
06:00 AM 79.1°F26.2°C 71.6°F22.0°C 78% 2.3 mph S3.7 kmh S 3.5 mph5.6 kmh 29.83 in1010.2 mb - 0.00 in0.0 mm 0.00 in0.0 mm
06:10 AM 78.7°F25.9°C 71.6°F22.0°C 79% 2.3 mph S3.7 kmh S 3.5 mph5.6 kmh 29.83 in1010.2 mb - 0.00 in0.0 mm 0.00 in0.0 mm
06:20 AM 78.3°F25.7°C 71.2°F21.8°C 79% 3.5 mph SSW5.6 kmh SSW 4.6 mph7.4 kmh 29.84 in1010.5 mb - 0.00 in0.0 mm 0.00 in0.0 mm
06:30 AM 78.0°F25.6°C 71.0°F21.7°C 79% 3.5 mph S5.6 kmh S 5.8 mph9.3 kmh 29.83 in1010.2 mb - 0.00 in0.0 mm 0.00 in0.0 mm
06:40 AM 77.9°F25.5°C 71.2°F21.8°C 80% 3.5 mph S5.6 kmh S 5.8 mph9.3 kmh 29.83 in1010.2 mb - 0.00 in0.0 mm 0.00 in0.0 mm
06:50 AM 77.8°F25.4°C 71.1°F21.7°C 80% 2.3 mph S3.7 kmh S 3.5 mph5.6 kmh 29.84 in1010.5 mb - 0.00 in0.0 mm 0.00 in0.0 mm
07:00 AM 77.8°F25.4°C 71.1°F21.7°C 80% 3.5 mph SSW5.6 kmh SSW 5.8 mph9.3 kmh 29.84 in1010.5 mb - 0.00 in0.0 mm 0.00 in0.0 mm
07:10 AM 77.8°F25.4°C 71.1°F21.7°C 80% 3.5 mph SW5.6 kmh SW 5.8 mph9.3 kmh 29.85 in1010.8 mb - 0.00 in0.0 mm 0.00 in0.0 mm
07:20 AM 78.0°F25.6°C 71.3°F21.8°C 80% 2.3 mph SSW3.7 kmh SSW 5.8 mph9.3 kmh 29.86 in1011.2 mb - 0.00 in0.0 mm 0.00 in0.0 mm
07:30 AM 78.3°F25.7°C 71.6°F22.0°C 80% 4.6 mph SSW7.4 kmh SSW 4.6 mph7.4 kmh 29.86 in1011.2 mb - 0.00 in0.0 mm 0.00 in0.0 mm
07:40 AM 78.5°F25.8°C 71.8°F22.1°C 80% 5.8 mph SSW9.3 kmh SSW 6.9 mph11.1 kmh 29.87 in1011.5 mb - 0.00 in0.0 mm 0.00 in0.0 mm
07:50 AM 78.8°F26.0°C 71.7°F22.1°C 79% 4.6 mph SSW7.4 kmh SSW 11.5 mph18.5 kmh 29.87 in1011.5 mb - 0.00 in0.0 mm 0.00 in0.0 mm
08:00 AM 79.1°F26.2°C 72.0°F22.2°C 79% 5.8 mph SSW9.3 kmh SSW 10.4 mph16.7 kmh 29.87 in1011.5 mb - 0.00 in0.0 mm 0.00 in0.0 mm
08:10 AM 79.4°F26.3°C 71.9°F22.2°C 78% 6.9 mph SSW11.1 kmh SSW 6.9 mph11.1 kmh 29.88 in1011.9 mb - 0.00 in0.0 mm 0.00 in0.0 mm
08:20 AM 79.9°F26.6°C 72.4°F22.4°C 78% 6.9 mph SW11.1 kmh SW 11.5 mph18.5 kmh 29.90 in1012.5 mb - 0.00 in0.0 mm 0.00 in0.0 mm
08:30 AM 80.3°F26.8°C 72.8°F22.7°C 78% 6.9 mph WSW11.1 kmh WSW 11.5 mph18.5 kmh 29.89 in1012.2 mb - 0.00 in0.0 mm 0.00 in0.0 mm
08:40 AM 80.6°F27.0°C 73.5°F23.1°C 79% 10.4 mph W16.7 kmh W 15.0 mph24.1 kmh 29.90 in1012.5 mb - 0.00 in0.0 mm 0.00 in0.0 mm
08:50 AM 80.9°F27.2°C 73.0°F22.8°C 77% 9.2 mph WNW14.8 kmh WNW 16.1 mph25.9 kmh 29.90 in1012.5 mb - 0.00 in0.0 mm 0.00 in0.0 mm
09:00 AM 80.9°F27.2°C 71.4°F21.9°C 73% 10.4 mph NW16.7 kmh NW 13.8 mph22.2 kmh 29.90 in1012.5 mb - 0.00 in0.0 mm 0.00 in0.0 mm
09:10 AM 80.4°F26.9°C 68.4°F20.2°C 67% 8.1 mph NW13.0 kmh NW 11.5 mph18.5 kmh 29.90 in1012.5 mb - 0.00 in0.0 mm 0.00 in0.0 mm
09:20 AM 80.4°F26.9°C 68.4°F20.2°C 67% 9.2 mph NNW14.8 kmh NNW 13.8 mph22.2 kmh 29.90 in1012.5 mb - 0.00 in0.0 mm 0.00 in0.0 mm
09:30 AM 80.3°F26.8°C 67.9°F19.9°C 66% 10.4 mph NW16.7 kmh NW 13.8 mph22.2 kmh 29.90 in1012.5 mb - 0.00 in0.0 mm 0.00 in0.0 mm
09:40 AM 79.4°F26.3°C 67.1°F19.5°C 66% 9.2 mph NW14.8 kmh NW 13.8 mph22.2 kmh 29.91 in1012.9 mb - 0.00 in0.0 mm 0.00 in0.0 mm
09:50 AM 78.9°F26.1°C 67.0°F19.4°C 67% 9.2 mph NW14.8 kmh NW 13.8 mph22.2 kmh 29.91 in1012.9 mb - 0.00 in0.0 mm 0.00 in0.0 mm
10:00 AM 78.8°F26.0°C 66.9°F19.4°C 67% 9.2 mph NW14.8 kmh NW 16.1 mph25.9 kmh 29.91 in1012.9 mb - 0.00 in0.0 mm 0.00 in0.0 mm
10:10 AM 79.0°F26.1°C 67.1°F19.5°C 67% 5.8 mph NW9.3 kmh NW 8.1 mph13.0 kmh 29.91 in1012.9 mb - 0.00 in0.0 mm 0.00 in0.0 mm
10:20 AM 79.5°F26.4°C 66.7°F19.3°C 65% 6.9 mph NW11.1 kmh NW 15.0 mph24.1 kmh 29.91 in1012.9 mb - 0.00 in0.0 mm 0.00 in0.0 mm
10:30 AM 79.7°F26.5°C 66.5°F19.2°C 64% 8.1 mph NW13.0 kmh NW 10.4 mph16.7 kmh 29.91 in1012.9 mb - 0.00 in0.0 mm 0.00 in0.0 mm
10:40 AM 80.2°F26.8°C 67.4°F19.7°C 65% 6.9 mph NW11.1 kmh NW 10.4 mph16.7 kmh 29.91 in1012.9 mb - 0.00 in0.0 mm 0.00 in0.0 mm
10:50 AM 80.7°F27.1°C 66.4°F19.1°C 62% 6.9 mph NW11.1 kmh NW 13.8 mph22.2 kmh 29.92 in1013.2 mb - 0.00 in0.0 mm 0.00 in0.0 mm
11:00 AM 81.1°F27.3°C 66.4°F19.1°C 61% 8.1 mph NW13.0 kmh NW 10.4 mph16.7 kmh 29.92 in1013.2 mb - 0.00 in0.0 mm 0.00 in0.0 mm
11:10 AM 81.4°F27.4°C 67.1°F19.5°C 62% 5.8 mph NNW9.3 kmh NNW 8.1 mph13.0 kmh 29.93 in1013.5 mb - 0.00 in0.0 mm 0.00 in0.0 mm
11:20 AM 81.9°F27.7°C 66.6°F19.2°C 60% 5.8 mph NNW9.3 kmh NNW 10.4 mph16.7 kmh 29.93 in1013.5 mb - 0.00 in0.0 mm 0.00 in0.0 mm
11:30 AM 82.4°F28.0°C 67.6°F19.8°C 61% 3.5 mph WNW5.6 kmh WNW 3.5 mph5.6 kmh 29.93 in1013.5 mb - 0.00 in0.0 mm 0.00 in0.0 mm
11:40 AM 82.7°F28.2°C 67.9°F19.9°C 61% 6.9 mph WNW11.1 kmh WNW 9.2 mph14.8 kmh 29.93 in1013.5 mb - 0.00 in0.0 mm 0.00 in0.0 mm
11:50 AM 83.2°F28.4°C 67.4°F19.7°C 59% 4.6 mph NW7.4 kmh NW 6.9 mph11.1 kmh 29.93 in1013.5 mb - 0.00 in0.0 mm 0.00 in0.0 mm
12:00 PM 83.5°F28.6°C 66.7°F19.3°C 57% 6.9 mph NW11.1 kmh NW 9.2 mph14.8 kmh 29.93 in1013.5 mb - 0.00 in0.0 mm 0.00 in0.0 mm
12:10 PM 83.8°F28.8°C 67.4°F19.7°C 58% 8.1 mph W13.0 kmh W 16.1 mph25.9 kmh 29.93 in1013.5 mb - 0.00 in0.0 mm 0.00 in0.0 mm
12:20 PM 84.3°F29.1°C 65.9°F18.8°C 54% 9.2 mph W14.8 kmh W 15.0 mph24.1 kmh 29.93 in1013.5 mb - 0.00 in0.0 mm 0.00 in0.0 mm
12:30 PM 84.5°F29.2°C 66.0°F18.9°C 54% 6.9 mph NW11.1 kmh NW 9.2 mph14.8 kmh 29.93 in1013.5 mb - 0.00 in0.0 mm 0.00 in0.0 mm
12:40 PM 85.0°F29.4°C 66.5°F19.2°C 54% 5.8 mph NW9.3 kmh NW 11.5 mph18.5 kmh 29.92 in1013.2 mb - 0.00 in0.0 mm 0.00 in0.0 mm
12:50 PM 85.2°F29.6°C 66.7°F19.3°C 54% 8.1 mph NW13.0 kmh NW 8.1 mph13.0 kmh 29.92 in1013.2 mb - 0.00 in0.0 mm 0.00 in0.0 mm
01:00 PM 85.4°F29.7°C 66.3°F19.1°C 53% 6.9 mph WSW11.1 kmh WSW 6.9 mph11.1 kmh 29.92 in1013.2 mb - 0.00 in0.0 mm 0.00 in0.0 mm
01:10 PM 85.9°F29.9°C 66.7°F19.3°C 53% 8.1 mph W13.0 kmh W 11.5 mph18.5 kmh 29.92 in1013.2 mb - 0.00 in0.0 mm 0.00 in0.0 mm
01:20 PM 86.1°F30.1°C 66.4°F19.1°C 52% 8.1 mph WSW13.0 kmh WSW 12.7 mph20.4 kmh 29.92 in1013.2 mb - 0.00 in0.0 mm 0.00 in0.0 mm
01:30 PM 86.2°F30.1°C 67.6°F19.8°C 54% 4.6 mph WNW7.4 kmh WNW 11.5 mph18.5 kmh 29.92 in1013.2 mb - 0.00 in0.0 mm 0.00 in0.0 mm
01:40 PM 86.3°F30.2°C 67.1°F19.5°C 53% 2.3 mph NW3.7 kmh NW 2.3 mph3.7 kmh 29.92 in1013.2 mb - 0.00 in0.0 mm 0.00 in0.0 mm
01:50 PM 86.9°F30.5°C 68.8°F20.4°C 55% 4.6 mph WSW7.4 kmh WSW 8.1 mph13.0 kmh 29.91 in1012.9 mb - 0.00 in0.0 mm 0.00 in0.0 mm
02:00 PM 87.8°F31.0°C 68.5°F20.3°C 53% 6.9 mph WNW11.1 kmh WNW 11.5 mph18.5 kmh 29.91 in1012.9 mb - 0.00 in0.0 mm 0.00 in0.0 mm
02:10 PM 88.1°F31.2°C 67.7°F19.8°C 51% 8.1 mph WNW13.0 kmh WNW 15.0 mph24.1 kmh 29.91 in1012.9 mb - 0.00 in0.0 mm 0.00 in0.0 mm
02:20 PM 88.4°F31.3°C 68.0°F20.0°C 51% 4.6 mph N7.4 kmh N 8.1 mph13.0 kmh 29.91 in1012.9 mb - 0.00 in0.0 mm 0.00 in0.0 mm
02:30 PM 88.4°F31.3°C 68.0°F20.0°C 51% 2.3 mph W3.7 kmh W 6.9 mph11.1 kmh 29.90 in1012.5 mb - 0.00 in0.0 mm 0.00 in0.0 mm
02:40 PM 88.6°F31.4°C 67.6°F19.8°C 50% 8.1 mph WSW13.0 kmh WSW 11.5 mph18.5 kmh 29.91 in1012.9 mb - 0.00 in0.0 mm 0.00 in0.0 mm
02:50 PM 89.5°F31.9°C 69.0°F20.6°C 51% 6.9 mph NW11.1 kmh NW 13.8 mph22.2 kmh 29.90 in1012.5 mb - 0.00 in0.0 mm 0.00 in0.0 mm
03:00 PM 90.2°F32.3°C 68.4°F20.2°C 49% 3.5 mph W5.6 kmh W 9.2 mph14.8 kmh 29.90 in1012.5 mb - 0.00 in0.0 mm 0.00 in0.0 mm
03:10 PM 90.4°F32.4°C 68.0°F20.0°C 48% 8.1 mph WSW13.0 kmh WSW 13.8 mph22.2 kmh 29.89 in1012.2 mb - 0.00 in0.0 mm 0.00 in0.0 mm
03:20 PM 90.4°F32.4°C 68.1°F20.1°C 48% 6.9 mph NNW11.1 kmh NNW 11.5 mph18.5 kmh 29.89 in1012.2 mb - 0.00 in0.0 mm 0.00 in0.0 mm
03:30 PM 90.7°F32.6°C 68.3°F20.2°C 48% 5.8 mph W9.3 kmh W 8.1 mph13.0 kmh 29.89 in1012.2 mb - 0.00 in0.0 mm 0.00 in0.0 mm
03:40 PM 90.6°F32.6°C 67.6°F19.8°C 47% 6.9 mph W11.1 kmh W 11.5 mph18.5 kmh 29.88 in1011.9 mb - 0.00 in0.0 mm 0.00 in0.0 mm
03:50 PM 90.5°F32.5°C 67.5°F19.7°C 47% 4.6 mph NW7.4 kmh NW 5.8 mph9.3 kmh 29.88 in1011.9 mb - 0.00 in0.0 mm 0.00 in0.0 mm
04:00 PM 90.8°F32.7°C 67.8°F19.9°C 47% 8.1 mph W13.0 kmh W 11.5 mph18.5 kmh 29.88 in1011.9 mb - 0.00 in0.0 mm 0.00 in0.0 mm
04:10 PM 91.0°F32.8°C 68.0°F20.0°C 47% 8.1 mph NW13.0 kmh NW 12.7 mph20.4 kmh 29.88 in1011.9 mb - 0.00 in0.0 mm 0.00 in0.0 mm
04:20 PM 90.4°F32.4°C 67.4°F19.7°C 47% 4.6 mph NW7.4 kmh NW 13.8 mph22.2 kmh 29.87 in1011.5 mb - 0.00 in0.0 mm 0.00 in0.0 mm
04:30 PM 90.4°F32.4°C 66.8°F19.3°C 46% 10.4 mph NW16.7 kmh NW 12.7 mph20.4 kmh 29.87 in1011.5 mb - 0.00 in0.0 mm 0.00 in0.0 mm
04:40 PM 90.9°F32.7°C 67.9°F19.9°C 47% 3.5 mph WNW5.6 kmh WNW 5.8 mph9.3 kmh 29.87 in1011.5 mb - 0.00 in0.0 mm 0.00 in0.0 mm
04:50 PM 90.9°F32.7°C 67.2°F19.6°C 46% 6.9 mph WNW11.1 kmh WNW 9.2 mph14.8 kmh 29.87 in1011.5 mb - 0.00 in0.0 mm 0.00 in0.0 mm
05:00 PM 90.7°F32.6°C 66.4°F19.1°C 45% 8.1 mph NW13.0 kmh NW 9.2 mph14.8 kmh 29.87 in1011.5 mb - 0.00 in0.0 mm 0.00 in0.0 mm
05:10 PM 90.8°F32.7°C 67.2°F19.6°C 46% 11.5 mph W18.5 kmh W 17.3 mph27.8 kmh 29.86 in1011.2 mb - 0.00 in0.0 mm 0.00 in0.0 mm
05:20 PM 90.6°F32.6°C 66.3°F19.1°C 45% 8.1 mph W13.0 kmh W 9.2 mph14.8 kmh 29.86 in1011.2 mb - 0.00 in0.0 mm 0.00 in0.0 mm
05:30 PM 90.4°F32.4°C 66.8°F19.3°C 46% 5.8 mph N9.3 kmh N 8.1 mph13.0 kmh 29.86 in1011.2 mb - 0.00 in0.0 mm 0.00 in0.0 mm
05:40 PM 90.3°F32.4°C 66.0°F18.9°C 45% 5.8 mph NW9.3 kmh NW 9.2 mph14.8 kmh 29.86 in1011.2 mb - 0.00 in0.0 mm 0.00 in0.0 mm
05:50 PM 89.9°F32.2°C 66.3°F19.1°C 46% 4.6 mph NW7.4 kmh NW 8.1 mph13.0 kmh 29.86 in1011.2 mb - 0.00 in0.0 mm 0.00 in0.0 mm
06:00 PM 89.8°F32.1°C 66.9°F19.4°C 47% 5.8 mph NW9.3 kmh NW 8.1 mph13.0 kmh 29.86 in1011.2 mb - 0.00 in0.0 mm 0.00 in0.0 mm
06:10 PM 89.7°F32.1°C 66.2°F19.0°C 46% 6.9 mph NNW11.1 kmh NNW 10.4 mph16.7 kmh 29.86 in1011.2 mb - 0.00 in0.0 mm 0.00 in0.0 mm
06:20 PM 89.5°F31.9°C 66.6°F19.2°C 47% 4.6 mph N7.4 kmh N 11.5 mph18.5 kmh 29.86 in1011.2 mb - 0.00 in0.0 mm 0.00 in0.0 mm
06:30 PM 89.3°F31.8°C 66.4°F19.1°C 47% 3.5 mph N5.6 kmh N 6.9 mph11.1 kmh 29.86 in1011.2 mb - 0.00 in0.0 mm 0.00 in0.0 mm
06:40 PM 89.1°F31.7°C 65.6°F18.7°C 46% 6.9 mph NW11.1 kmh NW 10.4 mph16.7 kmh 29.86 in1011.2 mb - 0.00 in0.0 mm 0.00 in0.0 mm
06:50 PM 88.8°F31.6°C 66.0°F18.9°C 47% 5.8 mph WNW9.3 kmh WNW 8.1 mph13.0 kmh 29.86 in1011.2 mb - 0.00 in0.0 mm 0.00 in0.0 mm
07:00 PM 88.6°F31.4°C 65.8°F18.8°C 47% 4.6 mph NW7.4 kmh NW 5.8 mph9.3 kmh 29.86 in1011.2 mb - 0.00 in0.0 mm 0.00 in0.0 mm
07:10 PM 88.3°F31.3°C 65.5°F18.6°C 47% 4.6 mph NW7.4 kmh NW 5.8 mph9.3 kmh 29.86 in1011.2 mb - 0.00 in0.0 mm 0.00 in0.0 mm
07:20 PM 87.9°F31.1°C 65.8°F18.8°C 48% 4.6 mph NW7.4 kmh NW 6.9 mph11.1 kmh 29.87 in1011.5 mb - 0.00 in0.0 mm 0.00 in0.0 mm
07:30 PM 87.5°F30.8°C 65.4°F18.6°C 48% 3.5 mph N5.6 kmh N 4.6 mph7.4 kmh 29.87 in1011.5 mb - 0.00 in0.0 mm 0.00 in0.0 mm
07:40 PM 87.2°F30.7°C 66.3°F19.1°C 50% 2.3 mph NNW3.7 kmh NNW 5.8 mph9.3 kmh 29.88 in1011.9 mb - 0.00 in0.0 mm 0.00 in0.0 mm
07:50 PM 86.7°F30.4°C 66.4°F19.1°C 51% 5.8 mph NNW9.3 kmh NNW 8.1 mph13.0 kmh 29.88 in1011.9 mb - 0.00 in0.0 mm 0.00 in0.0 mm
08:00 PM 86.3°F30.2°C 66.6°F19.2°C 52% 4.6 mph NNW7.4 kmh NNW 5.8 mph9.3 kmh 29.88 in1011.9 mb - 0.00 in0.0 mm 0.00 in0.0 mm
08:10 PM 85.7°F29.8°C 66.1°F18.9°C 52% 4.6 mph NNW7.4 kmh NNW 6.9 mph11.1 kmh 29.88 in1011.9 mb - 0.00 in0.0 mm 0.00 in0.0 mm
08:20 PM 85.3°F29.6°C 66.2°F19.0°C 53% 4.6 mph NW7.4 kmh NW 6.9 mph11.1 kmh 29.89 in1012.2 mb - 0.00 in0.0 mm 0.00 in0.0 mm
08:30 PM 84.8°F29.3°C 66.3°F19.1°C 54% 4.6 mph NW7.4 kmh NW 6.9 mph11.1 kmh 29.89 in1012.2 mb - 0.00 in0.0 mm 0.00 in0.0 mm
08:40 PM 84.3°F29.1°C 66.4°F19.1°C 55% 4.6 mph NW7.4 kmh NW 4.6 mph7.4 kmh 29.89 in1012.2 mb - 0.00 in0.0 mm 0.00 in0.0 mm
08:50 PM 83.9°F28.8°C 66.0°F18.9°C 55% 5.8 mph N9.3 kmh N 9.2 mph14.8 kmh 29.90 in1012.5 mb - 0.00 in0.0 mm 0.00 in0.0 mm
09:00 PM 83.6°F28.7°C 65.7°F18.7°C 55% 4.6 mph N7.4 kmh N 5.8 mph9.3 kmh 29.90 in1012.5 mb - 0.00 in0.0 mm 0.00 in0.0 mm
09:10 PM 83.3°F28.5°C 65.9°F18.8°C 56% 4.6 mph NNW7.4 kmh NNW 6.9 mph11.1 kmh 29.91 in1012.9 mb - 0.00 in0.0 mm 0.00 in0.0 mm
09:20 PM 82.9°F28.3°C 65.6°F18.7°C 56% 3.5 mph NNW5.6 kmh NNW 5.8 mph9.3 kmh 29.91 in1012.9 mb - 0.00 in0.0 mm 0.00 in0.0 mm
09:30 PM 82.5°F28.1°C 65.7°F18.7°C 57% 2.3 mph NNW3.7 kmh NNW 4.6 mph7.4 kmh 29.91 in1012.9 mb - 0.00 in0.0 mm 0.00 in0.0 mm
09:40 PM 82.1°F27.8°C 65.9°F18.8°C 58% 1.2 mph NNW1.9 kmh NNW 1.2 mph1.9 kmh 29.92 in1013.2 mb - 0.00 in0.0 mm 0.00 in0.0 mm
09:50 PM 81.8°F27.7°C 66.1°F18.9°C 59% 1.2 mph NNW1.9 kmh NNW 2.3 mph3.7 kmh 29.93 in1013.5 mb - 0.00 in0.0 mm 0.00 in0.0 mm
10:00 PM 81.4°F27.4°C 65.7°F18.7°C 59% 3.5 mph NNW5.6 kmh NNW 4.6 mph7.4 kmh 29.93 in1013.5 mb - 0.00 in0.0 mm 0.00 in0.0 mm
10:10 PM 81.1°F27.3°C 65.9°F18.8°C 60% 3.5 mph NNW5.6 kmh NNW 4.6 mph7.4 kmh 29.93 in1013.5 mb - 0.00 in0.0 mm 0.00 in0.0 mm
10:20 PM 80.9°F27.2°C 65.7°F18.7°C 60% 4.6 mph N7.4 kmh N 4.6 mph7.4 kmh 29.93 in1013.5 mb - 0.00 in0.0 mm 0.00 in0.0 mm
10:30 PM 80.7°F27.1°C 66.0°F18.9°C 61% 3.5 mph N5.6 kmh N 4.6 mph7.4 kmh 29.93 in1013.5 mb - 0.00 in0.0 mm 0.00 in0.0 mm
10:40 PM 80.5°F26.9°C 65.8°F18.8°C 61% 2.3 mph N3.7 kmh N 3.5 mph5.6 kmh 29.93 in1013.5 mb - 0.00 in0.0 mm 0.00 in0.0 mm
10:50 PM 80.3°F26.8°C 65.6°F18.7°C 61% 2.3 mph N3.7 kmh N 3.5 mph5.6 kmh 29.93 in1013.5 mb - 0.00 in0.0 mm 0.00 in0.0 mm
11:00 PM 80.2°F26.8°C 66.0°F18.9°C 62% 1.2 mph N1.9 kmh N 3.5 mph5.6 kmh 29.94 in1013.9 mb - 0.00 in0.0 mm 0.00 in0.0 mm
11:10 PM 80.0°F26.7°C 65.8°F18.8°C 62% 3.5 mph NNE5.6 kmh NNE 4.6 mph7.4 kmh 29.94 in1013.9 mb - 0.00 in0.0 mm 0.00 in0.0 mm
11:20 PM 79.8°F26.6°C 66.1°F18.9°C 63% 1.2 mph NNE1.9 kmh NNE 1.2 mph1.9 kmh 29.94 in1013.9 mb - 0.00 in0.0 mm 0.00 in0.0 mm
11:30 PM 79.6°F26.4°C 66.3°F19.1°C 64% 2.3 mph N3.7 kmh N 4.6 mph7.4 kmh 29.95 in1014.2 mb - 0.00 in0.0 mm 0.00 in0.0 mm
11:40 PM 79.3°F26.3°C 66.1°F18.9°C 64% 2.3 mph N3.7 kmh N 3.5 mph5.6 kmh 29.95 in1014.2 mb - 0.00 in0.0 mm 0.00 in0.0 mm
11:50 PM 79.1°F26.2°C 66.3°F19.1°C 65% 3.5 mph 5.6 kmh 3.5 mph5.6 kmh 29.95 in1014.2 mb - 0.00 in0.0 mm 0.00 in0.0 mm